sensor_id;sensor_type;location;lat;lon;timestamp;temperature;humidity
45803;DHT22;31504;51.716;9.184;2023-03-14T00:00:50;18.90;49.00
45803;DHT22;31504;51.716;9.184;2023-03-14T00:03:50;18.90;49.30
45803;DHT22;31504;51.716;9.184;2023-03-14T00:06:51;18.90;49.00
45803;DHT22;31504;51.716;9.184;2023-03-14T00:09:51;18.90;49.00
45803;DHT22;31504;51.716;9.184;2023-03-14T00:12:52;18.90;49.00
45803;DHT22;31504;51.716;9.184;2023-03-14T00:15:52;18.90;49.00
45803;DHT22;31504;51.716;9.184;2023-03-14T00:18:53;18.90;49.30
45803;DHT22;31504;51.716;9.184;2023-03-14T00:21:53;18.90;49.00
45803;DHT22;31504;51.716;9.184;2023-03-14T00:24:54;18.90;49.10
45803;DHT22;31504;51.716;9.184;2023-03-14T00:27:54;18.80;49.40
45803;DHT22;31504;51.716;9.184;2023-03-14T00:30:55;18.90;49.50
45803;DHT22;31504;51.716;9.184;2023-03-14T00:33:55;18.90;49.00
45803;DHT22;31504;51.716;9.184;2023-03-14T00:36:56;18.90;49.20
45803;DHT22;31504;51.716;9.184;2023-03-14T00:39:56;19.00;49.20
45803;DHT22;31504;51.716;9.184;2023-03-14T00:42:58;18.90;49.10
45803;DHT22;31504;51.716;9.184;2023-03-14T00:45:59;18.90;49.40
45803;DHT22;31504;51.716;9.184;2023-03-14T00:48:59;18.90;49.20
45803;DHT22;31504;51.716;9.184;2023-03-14T00:51:59;18.90;49.10
45803;DHT22;31504;51.716;9.184;2023-03-14T00:55:00;18.90;49.20
45803;DHT22;31504;51.716;9.184;2023-03-14T00:58:00;18.80;49.20
45803;DHT22;31504;51.716;9.184;2023-03-14T01:01:14;18.80;49.40
45803;DHT22;31504;51.716;9.184;2023-03-14T01:04:14;18.90;49.20
45803;DHT22;31504;51.716;9.184;2023-03-14T01:07:15;18.80;49.30
45803;DHT22;31504;51.716;9.184;2023-03-14T01:10:16;18.80;49.50
45803;DHT22;31504;51.716;9.184;2023-03-14T01:13:16;18.90;49.30
45803;DHT22;31504;51.716;9.184;2023-03-14T01:16:17;18.90;49.30
45803;DHT22;31504;51.716;9.184;2023-03-14T01:19:18;18.90;50.00
45803;DHT22;31504;51.716;9.184;2023-03-14T01:22:18;18.90;49.30
45803;DHT22;31504;51.716;9.184;2023-03-14T01:25:21;18.80;49.60
45803;DHT22;31504;51.716;9.184;2023-03-14T01:28:22;18.90;49.40
45803;DHT22;31504;51.716;9.184;2023-03-14T01:31:22;18.80;49.20
45803;DHT22;31504;51.716;9.184;2023-03-14T01:34:23;18.80;49.60
45803;DHT22;31504;51.716;9.184;2023-03-14T01:37:24;18.80;49.20
45803;DHT22;31504;51.716;9.184;2023-03-14T01:40:24;18.80;49.60
45803;DHT22;31504;51.716;9.184;2023-03-14T01:43:25;18.80;49.50
45803;DHT22;31504;51.716;9.184;2023-03-14T01:46:32;18.90;49.80
45803;DHT22;31504;51.716;9.184;2023-03-14T01:49:34;18.90;49.40
45803;DHT22;31504;51.716;9.184;2023-03-14T01:52:36;18.90;49.40
45803;DHT22;31504;51.716;9.184;2023-03-14T01:55:42;18.90;49.40
45803;DHT22;31504;51.716;9.184;2023-03-14T01:58:43;18.90;49.40
45803;DHT22;31504;51.716;9.184;2023-03-14T02:01:45;18.80;49.30
45803;DHT22;31504;51.716;9.184;2023-03-14T02:04:47;18.90;49.50
45803;DHT22;31504;51.716;9.184;2023-03-14T02:07:54;18.90;49.70
45803;DHT22;31504;51.716;9.184;2023-03-14T02:10:55;19.00;49.10
45803;DHT22;31504;51.716;9.184;2023-03-14T02:13:56;18.90;49.10
45803;DHT22;31504;51.716;9.184;2023-03-14T02:16:58;18.90;49.20
45803;DHT22;31504;51.716;9.184;2023-03-14T02:20:22;18.90;50.00
45803;DHT22;31504;51.716;9.184;2023-03-14T02:23:43;18.90;49.10
45803;DHT22;31504;51.716;9.184;2023-03-14T02:30:06;18.80;49.40
45803;DHT22;31504;51.716;9.184;2023-03-14T02:33:08;18.80;49.30
45803;DHT22;31504;51.716;9.184;2023-03-14T02:36:11;19.10;49.90
45803;DHT22;31504;51.716;9.184;2023-03-14T02:39:21;19.30;49.20
45803;DHT22;31504;51.716;9.184;2023-03-14T02:42:24;19.40;48.90
45803;DHT22;31504;51.716;9.184;2023-03-14T02:48:29;19.60;49.00
45803;DHT22;31504;51.716;9.184;2023-03-14T02:51:31;19.60;48.90
45803;DHT22;31504;51.716;9.184;2023-03-14T02:54:32;19.60;48.70
45803;DHT22;31504;51.716;9.184;2023-03-14T02:57:32;19.60;49.00
45803;DHT22;31504;51.716;9.184;2023-03-14T03:00:33;19.50;49.00
45803;DHT22;31504;51.716;9.184;2023-03-14T03:03:33;19.60;49.20
45803;DHT22;31504;51.716;9.184;2023-03-14T03:06:34;19.60;48.60
45803;DHT22;31504;51.716;9.184;2023-03-14T03:09:34;19.50;49.20
45803;DHT22;31504;51.716;9.184;2023-03-14T03:12:34;19.60;48.90
45803;DHT22;31504;51.716;9.184;2023-03-14T03:19:13;19.60;49.00
45803;DHT22;31504;51.716;9.184;2023-03-14T03:22:14;19.60;48.80
45803;DHT22;31504;51.716;9.184;2023-03-14T03:25:14;19.60;49.50
45803;DHT22;31504;51.716;9.184;2023-03-14T03:28:15;19.70;48.90
45803;DHT22;31504;51.716;9.184;2023-03-14T03:31:16;19.70;48.90
45803;DHT22;31504;51.716;9.184;2023-03-14T03:34:16;19.60;48.10
45803;DHT22;31504;51.716;9.184;2023-03-14T03:37:16;19.50;49.00
45803;DHT22;31504;51.716;9.184;2023-03-14T03:40:17;19.50;48.80
45803;DHT22;31504;51.716;9.184;2023-03-14T03:43:17;19.60;49.00
45803;DHT22;31504;51.716;9.184;2023-03-14T03:46:18;19.70;49.10
45803;DHT22;31504;51.716;9.184;2023-03-14T03:49:18;19.60;48.90
45803;DHT22;31504;51.716;9.184;2023-03-14T03:52:19;19.60;49.70
45803;DHT22;31504;51.716;9.184;2023-03-14T03:55:20;19.60;49.00
45803;DHT22;31504;51.716;9.184;2023-03-14T03:58:21;19.60;49.20
45803;DHT22;31504;51.716;9.184;2023-03-14T04:01:21;19.60;49.00
45803;DHT22;31504;51.716;9.184;2023-03-14T04:04:22;19.60;49.20
45803;DHT22;31504;51.716;9.184;2023-03-14T04:07:22;19.60;49.30
45803;DHT22;31504;51.716;9.184;2023-03-14T04:10:22;19.60;49.00
45803;DHT22;31504;51.716;9.184;2023-03-14T04:13:23;19.60;49.30
45803;DHT22;31504;51.716;9.184;2023-03-14T04:16:24;19.60;49.30
45803;DHT22;31504;51.716;9.184;2023-03-14T04:19:25;19.60;49.20
45803;DHT22;31504;51.716;9.184;2023-03-14T04:22:25;19.60;49.30
45803;DHT22;31504;51.716;9.184;2023-03-14T04:25:25;19.50;48.10
45803;DHT22;31504;51.716;9.184;2023-03-14T04:28:26;19.10;48.60
45803;DHT22;31504;51.716;9.184;2023-03-14T04:31:26;18.90;49.20
45803;DHT22;31504;51.716;9.184;2023-03-14T04:34:27;18.80;49.50
45803;DHT22;31504;51.716;9.184;2023-03-14T04:37:27;18.70;49.70
45803;DHT22;31504;51.716;9.184;2023-03-14T04:40:28;18.70;49.90
45803;DHT22;31504;51.716;9.184;2023-03-14T04:43:28;18.60;50.00
45803;DHT22;31504;51.716;9.184;2023-03-14T04:46:29;18.60;49.90
45803;DHT22;31504;51.716;9.184;2023-03-14T04:49:29;18.60;50.00
45803;DHT22;31504;51.716;9.184;2023-03-14T04:52:29;18.60;49.90
45803;DHT22;31504;51.716;9.184;2023-03-14T04:55:30;18.60;50.00
45803;DHT22;31504;51.716;9.184;2023-03-14T04:58:32;18.60;50.00
45803;DHT22;31504;51.716;9.184;2023-03-14T05:01:32;18.60;50.00
45803;DHT22;31504;51.716;9.184;2023-03-14T05:04:33;18.60;50.00
45803;DHT22;31504;51.716;9.184;2023-03-14T05:07:33;18.60;50.00
45803;DHT22;31504;51.716;9.184;2023-03-14T05:10:34;18.60;50.00
45803;DHT22;31504;51.716;9.184;2023-03-14T05:13:34;18.60;50.00
45803;DHT22;31504;51.716;9.184;2023-03-14T05:16:35;18.60;50.00
45803;DHT22;31504;51.716;9.184;2023-03-14T05:19:35;18.60;50.00
45803;DHT22;31504;51.716;9.184;2023-03-14T05:22:36;18.60;50.00
45803;DHT22;31504;51.716;9.184;2023-03-14T05:25:36;18.60;50.00
45803;DHT22;31504;51.716;9.184;2023-03-14T05:28:36;18.60;50.10
45803;DHT22;31504;51.716;9.184;2023-03-14T05:31:37;18.60;50.00
45803;DHT22;31504;51.716;9.184;2023-03-14T05:34:37;18.60;50.10
45803;DHT22;31504;51.716;9.184;2023-03-14T05:37:38;18.60;50.10
45803;DHT22;31504;51.716;9.184;2023-03-14T05:40:38;18.60;50.10
45803;DHT22;31504;51.716;9.184;2023-03-14T05:43:39;18.60;50.20
45803;DHT22;31504;51.716;9.184;2023-03-14T05:46:39;18.60;50.10
45803;DHT22;31504;51.716;9.184;2023-03-14T05:49:40;18.60;50.10
45803;DHT22;31504;51.716;9.184;2023-03-14T05:52:40;18.60;50.10
45803;DHT22;31504;51.716;9.184;2023-03-14T05:55:40;18.60;50.10
45803;DHT22;31504;51.716;9.184;2023-03-14T05:58:41;18.60;50.10
45803;DHT22;31504;51.716;9.184;2023-03-14T06:01:41;18.60;50.10
45803;DHT22;31504;51.716;9.184;2023-03-14T06:04:42;18.60;50.00
45803;DHT22;31504;51.716;9.184;2023-03-14T06:07:42;18.60;50.70
45803;DHT22;31504;51.716;9.184;2023-03-14T06:10:43;18.60;50.10
45803;DHT22;31504;51.716;9.184;2023-03-14T06:13:43;18.60;50.10
45803;DHT22;31504;51.716;9.184;2023-03-14T06:16:43;18.60;50.10
45803;DHT22;31504;51.716;9.184;2023-03-14T06:19:44;18.60;50.10
45803;DHT22;31504;51.716;9.184;2023-03-14T06:22:45;18.60;50.10
45803;DHT22;31504;51.716;9.184;2023-03-14T06:25:45;18.60;50.10
45803;DHT22;31504;51.716;9.184;2023-03-14T06:28:46;18.60;50.20
45803;DHT22;31504;51.716;9.184;2023-03-14T06:31:46;18.60;50.20
45803;DHT22;31504;51.716;9.184;2023-03-14T06:34:46;18.60;50.20
45803;DHT22;31504;51.716;9.184;2023-03-14T06:37:47;18.60;50.20
45803;DHT22;31504;51.716;9.184;2023-03-14T06:40:47;18.60;50.30
45803;DHT22;31504;51.716;9.184;2023-03-14T06:43:48;18.60;50.20
45803;DHT22;31504;51.716;9.184;2023-03-14T06:46:48;18.60;50.20
45803;DHT22;31504;51.716;9.184;2023-03-14T06:49:49;18.60;50.10
45803;DHT22;31504;51.716;9.184;2023-03-14T06:52:49;18.60;50.10
45803;DHT22;31504;51.716;9.184;2023-03-14T06:55:50;18.70;50.20
45803;DHT22;31504;51.716;9.184;2023-03-14T06:58:50;18.70;50.10
45803;DHT22;31504;51.716;9.184;2023-03-14T07:01:50;18.70;50.10
45803;DHT22;31504;51.716;9.184;2023-03-14T07:04:51;18.70;50.10
45803;DHT22;31504;51.716;9.184;2023-03-14T07:07:51;18.70;50.10
45803;DHT22;31504;51.716;9.184;2023-03-14T07:10:52;18.70;50.10
45803;DHT22;31504;51.716;9.184;2023-03-14T07:13:52;18.70;50.10
45803;DHT22;31504;51.716;9.184;2023-03-14T07:16:53;18.70;50.10
45803;DHT22;31504;51.716;9.184;2023-03-14T07:19:53;18.80;50.10
45803;DHT22;31504;51.716;9.184;2023-03-14T07:22:53;18.80;50.00
45803;DHT22;31504;51.716;9.184;2023-03-14T07:25:54;18.70;50.00
45803;DHT22;31504;51.716;9.184;2023-03-14T07:28:55;18.70;50.10
45803;DHT22;31504;51.716;9.184;2023-03-14T07:31:55;18.70;50.00
45803;DHT22;31504;51.716;9.184;2023-03-14T07:34:55;18.90;49.90
45803;DHT22;31504;51.716;9.184;2023-03-14T07:37:56;18.80;50.00
45803;DHT22;31504;51.716;9.184;2023-03-14T07:41:00;18.80;50.30
45803;DHT22;31504;51.716;9.184;2023-03-14T07:44:01;18.80;50.40
45803;DHT22;31504;51.716;9.184;2023-03-14T07:47:01;18.80;49.90
45803;DHT22;31504;51.716;9.184;2023-03-14T07:50:03;18.80;49.90
45803;DHT22;31504;51.716;9.184;2023-03-14T07:53:03;18.80;49.90
45803;DHT22;31504;51.716;9.184;2023-03-14T07:56:04;18.80;50.00
45803;DHT22;31504;51.716;9.184;2023-03-14T07:59:04;18.80;49.90
45803;DHT22;31504;51.716;9.184;2023-03-14T08:02:05;18.80;50.10
45803;DHT22;31504;51.716;9.184;2023-03-14T08:05:11;18.80;50.10
45803;DHT22;31504;51.716;9.184;2023-03-14T08:08:11;18.80;49.90
45803;DHT22;31504;51.716;9.184;2023-03-14T08:11:11;18.80;50.10
45803;DHT22;31504;51.716;9.184;2023-03-14T08:14:12;18.80;49.80
45803;DHT22;31504;51.716;9.184;2023-03-14T08:17:12;18.90;50.20
45803;DHT22;31504;51.716;9.184;2023-03-14T08:20:13;18.80;49.80
45803;DHT22;31504;51.716;9.184;2023-03-14T08:23:13;18.80;49.90
45803;DHT22;31504;51.716;9.184;2023-03-14T08:26:14;18.80;49.90
45803;DHT22;31504;51.716;9.184;2023-03-14T08:29:14;18.80;50.00
45803;DHT22;31504;51.716;9.184;2023-03-14T08:32:15;18.80;50.00
45803;DHT22;31504;51.716;9.184;2023-03-14T08:35:15;18.80;49.90
45803;DHT22;31504;51.716;9.184;2023-03-14T08:38:16;18.80;49.90
45803;DHT22;31504;51.716;9.184;2023-03-14T08:41:16;18.90;49.90
45803;DHT22;31504;51.716;9.184;2023-03-14T08:44:17;18.80;49.90
45803;DHT22;31504;51.716;9.184;2023-03-14T08:47:17;18.90;49.90
45803;DHT22;31504;51.716;9.184;2023-03-14T08:50:18;18.90;49.80
45803;DHT22;31504;51.716;9.184;2023-03-14T08:53:18;18.90;49.80
45803;DHT22;31504;51.716;9.184;2023-03-14T08:56:21;18.90;50.20
45803;DHT22;31504;51.716;9.184;2023-03-14T08:59:21;18.80;49.90
45803;DHT22;31504;51.716;9.184;2023-03-14T09:02:22;18.80;49.90
45803;DHT22;31504;51.716;9.184;2023-03-14T09:05:23;18.80;50.20
45803;DHT22;31504;51.716;9.184;2023-03-14T09:08:23;18.80;50.00
45803;DHT22;31504;51.716;9.184;2023-03-14T09:11:24;18.80;50.10
45803;DHT22;31504;51.716;9.184;2023-03-14T09:14:24;18.80;50.10
45803;DHT22;31504;51.716;9.184;2023-03-14T09:17:25;18.80;50.10
45803;DHT22;31504;51.716;9.184;2023-03-14T09:20:25;18.90;50.20
45803;DHT22;31504;51.716;9.184;2023-03-14T09:23:26;18.80;50.20
45803;DHT22;31504;51.716;9.184;2023-03-14T09:26:27;18.80;50.10
45803;DHT22;31504;51.716;9.184;2023-03-14T09:29:27;18.90;50.10
45803;DHT22;31504;51.716;9.184;2023-03-14T09:32:27;19.00;50.20
45803;DHT22;31504;51.716;9.184;2023-03-14T09:35:28;19.20;50.10
45803;DHT22;31504;51.716;9.184;2023-03-14T09:38:28;19.40;49.90
45803;DHT22;31504;51.716;9.184;2023-03-14T09:41:30;19.60;49.50
45803;DHT22;31504;51.716;9.184;2023-03-14T09:44:32;19.70;49.10
45803;DHT22;31504;51.716;9.184;2023-03-14T09:47:33;19.70;49.00
45803;DHT22;31504;51.716;9.184;2023-03-14T09:50:38;19.70;48.90
45803;DHT22;31504;51.716;9.184;2023-03-14T09:53:41;19.70;48.90
45803;DHT22;31504;51.716;9.184;2023-03-14T09:56:43;19.70;49.30
45803;DHT22;31504;51.716;9.184;2023-03-14T09:59:44;19.80;49.30
45803;DHT22;31504;51.716;9.184;2023-03-14T10:02:55;19.90;49.10
45803;DHT22;31504;51.716;9.184;2023-03-14T10:05:57;19.90;49.00
45803;DHT22;31504;51.716;9.184;2023-03-14T10:08:57;19.90;48.20
45803;DHT22;31504;51.716;9.184;2023-03-14T10:11:58;19.80;49.20
45803;DHT22;31504;51.716;9.184;2023-03-14T10:15:02;19.90;49.20
45803;DHT22;31504;51.716;9.184;2023-03-14T10:18:04;19.90;49.20
45803;DHT22;31504;51.716;9.184;2023-03-14T10:21:25;19.80;49.40
45803;DHT22;31504;51.716;9.184;2023-03-14T10:24:30;19.90;49.10
45803;DHT22;31504;51.716;9.184;2023-03-14T10:27:32;19.90;49.00
45803;DHT22;31504;51.716;9.184;2023-03-14T10:33:38;20.00;49.10
45803;DHT22;31504;51.716;9.184;2023-03-14T10:36:38;19.90;49.00
45803;DHT22;31504;51.716;9.184;2023-03-14T10:39:45;19.90;49.10
45803;DHT22;31504;51.716;9.184;2023-03-14T10:42:46;19.90;49.20
45803;DHT22;31504;51.716;9.184;2023-03-14T10:45:54;19.90;49.10
45803;DHT22;31504;51.716;9.184;2023-03-14T10:48:57;20.00;48.90
45803;DHT22;31504;51.716;9.184;2023-03-14T10:52:40;19.90;49.20
45803;DHT22;31504;51.716;9.184;2023-03-14T10:55:24;19.80;48.80
45803;DHT22;31504;51.716;9.184;2023-03-14T10:58:28;19.80;49.40
45803;DHT22;31504;51.716;9.184;2023-03-14T11:04:52;19.70;49.50
45803;DHT22;31504;51.716;9.184;2023-03-14T11:08:02;19.50;50.00
45803;DHT22;31504;51.716;9.184;2023-03-14T11:11:24;19.50;49.70
45803;DHT22;31504;51.716;9.184;2023-03-14T11:14:26;19.60;49.10
45803;DHT22;31504;51.716;9.184;2023-03-14T11:17:39;19.60;49.60
45803;DHT22;31504;51.716;9.184;2023-03-14T11:20:43;19.70;49.40
45803;DHT22;31504;51.716;9.184;2023-03-14T11:27:14;19.90;49.10
45803;DHT22;31504;51.716;9.184;2023-03-14T11:33:17;20.10;49.20
45803;DHT22;31504;51.716;9.184;2023-03-14T11:36:25;20.00;48.30
45803;DHT22;31504;51.716;9.184;2023-03-14T11:39:38;19.70;48.80
45803;DHT22;31504;51.716;9.184;2023-03-14T11:42:40;19.80;49.90
45803;DHT22;31504;51.716;9.184;2023-03-14T11:45:43;19.80;50.30
45803;DHT22;31504;51.716;9.184;2023-03-14T11:51:51;20.10;48.80
45803;DHT22;31504;51.716;9.184;2023-03-14T11:54:56;20.00;49.20
45803;DHT22;31504;51.716;9.184;2023-03-14T11:58:05;20.20;49.50
45803;DHT22;31504;51.716;9.184;2023-03-14T12:01:09;20.20;49.20
45803;DHT22;31504;51.716;9.184;2023-03-14T12:07:34;20.20;49.50
45803;DHT22;31504;51.716;9.184;2023-03-14T12:10:48;20.20;49.40
45803;DHT22;31504;51.716;9.184;2023-03-14T12:13:50;20.10;49.60
45803;DHT22;31504;51.716;9.184;2023-03-14T12:17:26;20.10;50.00
45803;DHT22;31504;51.716;9.184;2023-03-14T12:20:19;20.10;49.70
45803;DHT22;31504;51.716;9.184;2023-03-14T12:23:21;20.10;49.50
45803;DHT22;31504;51.716;9.184;2023-03-14T12:26:25;20.00;49.40
45803;DHT22;31504;51.716;9.184;2023-03-14T12:29:26;20.00;49.40
45803;DHT22;31504;51.716;9.184;2023-03-14T12:32:27;20.00;49.20
45803;DHT22;31504;51.716;9.184;2023-03-14T12:38:46;20.10;48.60
45803;DHT22;31504;51.716;9.184;2023-03-14T12:41:53;20.10;48.40
45803;DHT22;31504;51.716;9.184;2023-03-14T12:44:54;20.00;48.60
45803;DHT22;31504;51.716;9.184;2023-03-14T12:48:23;20.00;48.70
45803;DHT22;31504;51.716;9.184;2023-03-14T12:51:37;20.00;48.70
45803;DHT22;31504;51.716;9.184;2023-03-14T12:54:40;20.00;48.60
45803;DHT22;31504;51.716;9.184;2023-03-14T12:57:53;20.10;48.40
45803;DHT22;31504;51.716;9.184;2023-03-14T13:00:59;20.10;48.30
45803;DHT22;31504;51.716;9.184;2023-03-14T13:04:06;20.00;48.50
45803;DHT22;31504;51.716;9.184;2023-03-14T13:07:10;19.90;48.40
45803;DHT22;31504;51.716;9.184;2023-03-14T13:13:22;19.80;48.90
45803;DHT22;31504;51.716;9.184;2023-03-14T13:16:23;19.70;48.90
45803;DHT22;31504;51.716;9.184;2023-03-14T13:19:24;19.70;49.10
45803;DHT22;31504;51.716;9.184;2023-03-14T13:22:28;19.80;48.90
45803;DHT22;31504;51.716;9.184;2023-03-14T13:25:32;19.80;48.70
45803;DHT22;31504;51.716;9.184;2023-03-14T13:28:33;19.80;48.90
45803;DHT22;31504;51.716;9.184;2023-03-14T13:31:34;19.80;48.80
45803;DHT22;31504;51.716;9.184;2023-03-14T13:34:35;19.70;48.90
45803;DHT22;31504;51.716;9.184;2023-03-14T13:37:38;19.60;49.00
45803;DHT22;31504;51.716;9.184;2023-03-14T13:40:39;19.60;49.00
45803;DHT22;31504;51.716;9.184;2023-03-14T13:43:43;19.60;49.00
45803;DHT22;31504;51.716;9.184;2023-03-14T13:46:43;19.70;48.90
45803;DHT22;31504;51.716;9.184;2023-03-14T13:49:44;19.60;49.00
45803;DHT22;31504;51.716;9.184;2023-03-14T13:52:45;19.70;49.00
45803;DHT22;31504;51.716;9.184;2023-03-14T13:55:46;19.70;49.00
45803;DHT22;31504;51.716;9.184;2023-03-14T13:58:47;19.60;48.90
45803;DHT22;31504;51.716;9.184;2023-03-14T14:01:47;19.70;48.80
45803;DHT22;31504;51.716;9.184;2023-03-14T14:04:48;19.70;48.70
45803;DHT22;31504;51.716;9.184;2023-03-14T14:07:49;19.70;48.80
45803;DHT22;31504;51.716;9.184;2023-03-14T14:10:50;19.70;48.80
45803;DHT22;31504;51.716;9.184;2023-03-14T14:13:52;20.00;48.10
45803;DHT22;31504;51.716;9.184;2023-03-14T14:16:53;20.40;46.40
45803;DHT22;31504;51.716;9.184;2023-03-14T14:19:53;19.80;48.00
45803;DHT22;31504;51.716;9.184;2023-03-14T14:22:56;19.60;47.90
45803;DHT22;31504;51.716;9.184;2023-03-14T14:25:57;19.60;47.30
45803;DHT22;31504;51.716;9.184;2023-03-14T14:29:04;19.60;47.50
45803;DHT22;31504;51.716;9.184;2023-03-14T14:35:09;19.80;47.80
45803;DHT22;31504;51.716;9.184;2023-03-14T14:38:16;19.80;47.70
45803;DHT22;31504;51.716;9.184;2023-03-14T14:41:16;19.70;47.40
45803;DHT22;31504;51.716;9.184;2023-03-14T14:44:18;19.80;47.40
45803;DHT22;31504;51.716;9.184;2023-03-14T14:47:21;19.90;47.30
45803;DHT22;31504;51.716;9.184;2023-03-14T14:53:26;19.80;47.80
45803;DHT22;31504;51.716;9.184;2023-03-14T14:56:26;19.70;47.90
45803;DHT22;31504;51.716;9.184;2023-03-14T14:59:27;19.60;48.10
45803;DHT22;31504;51.716;9.184;2023-03-14T15:02:35;19.80;47.50
45803;DHT22;31504;51.716;9.184;2023-03-14T15:05:37;19.80;47.60
45803;DHT22;31504;51.716;9.184;2023-03-14T15:08:38;19.70;48.10
45803;DHT22;31504;51.716;9.184;2023-03-14T15:11:39;19.80;47.70
45803;DHT22;31504;51.716;9.184;2023-03-14T15:14:39;19.70;47.90
45803;DHT22;31504;51.716;9.184;2023-03-14T15:17:40;19.70;47.80
45803;DHT22;31504;51.716;9.184;2023-03-14T15:20:41;19.70;48.00
45803;DHT22;31504;51.716;9.184;2023-03-14T15:23:41;19.70;48.00
45803;DHT22;31504;51.716;9.184;2023-03-14T15:26:42;19.70;48.10
45803;DHT22;31504;51.716;9.184;2023-03-14T15:29:44;19.80;47.80
45803;DHT22;31504;51.716;9.184;2023-03-14T15:32:44;19.80;47.90
45803;DHT22;31504;51.716;9.184;2023-03-14T15:35:45;19.80;47.60
45803;DHT22;31504;51.716;9.184;2023-03-14T15:38:45;19.80;47.60
45803;DHT22;31504;51.716;9.184;2023-03-14T15:41:46;19.90;47.20
45803;DHT22;31504;51.716;9.184;2023-03-14T15:44:46;19.90;47.20
45803;DHT22;31504;51.716;9.184;2023-03-14T15:47:47;20.00;47.20
45803;DHT22;31504;51.716;9.184;2023-03-14T15:50:47;19.90;47.10
45803;DHT22;31504;51.716;9.184;2023-03-14T15:53:47;19.90;47.00
45803;DHT22;31504;51.716;9.184;2023-03-14T15:56:48;19.90;47.40
45803;DHT22;31504;51.716;9.184;2023-03-14T15:59:48;19.80;47.00
45803;DHT22;31504;51.716;9.184;2023-03-14T16:02:49;19.90;46.90
45803;DHT22;31504;51.716;9.184;2023-03-14T16:05:49;19.90;47.40
45803;DHT22;31504;51.716;9.184;2023-03-14T16:08:50;19.80;47.00
45803;DHT22;31504;51.716;9.184;2023-03-14T16:11:50;19.80;46.90
45803;DHT22;31504;51.716;9.184;2023-03-14T16:14:50;19.80;47.10
45803;DHT22;31504;51.716;9.184;2023-03-14T16:17:54;19.80;47.10
45803;DHT22;31504;51.716;9.184;2023-03-14T16:21:02;19.80;47.00
45803;DHT22;31504;51.716;9.184;2023-03-14T16:24:05;19.90;46.70
45803;DHT22;31504;51.716;9.184;2023-03-14T16:27:06;20.10;45.40
45803;DHT22;31504;51.716;9.184;2023-03-14T16:30:07;20.00;46.20
45803;DHT22;31504;51.716;9.184;2023-03-14T16:33:08;19.90;46.50
45803;DHT22;31504;51.716;9.184;2023-03-14T16:36:10;19.80;46.10
45803;DHT22;31504;51.716;9.184;2023-03-14T16:39:11;19.90;45.90
45803;DHT22;31504;51.716;9.184;2023-03-14T16:42:11;20.00;46.10
45803;DHT22;31504;51.716;9.184;2023-03-14T16:45:12;19.90;46.50
45803;DHT22;31504;51.716;9.184;2023-03-14T16:48:12;19.80;46.70
45803;DHT22;31504;51.716;9.184;2023-03-14T16:51:13;19.80;46.70
45803;DHT22;31504;51.716;9.184;2023-03-14T16:54:15;19.70;47.20
45803;DHT22;31504;51.716;9.184;2023-03-14T16:57:15;19.70;46.80
45803;DHT22;31504;51.716;9.184;2023-03-14T17:00:16;19.70;47.00
45803;DHT22;31504;51.716;9.184;2023-03-14T17:03:17;19.70;46.80
45803;DHT22;31504;51.716;9.184;2023-03-14T17:06:24;19.70;47.10
45803;DHT22;31504;51.716;9.184;2023-03-14T17:09:25;19.60;47.20
45803;DHT22;31504;51.716;9.184;2023-03-14T17:12:25;19.70;47.40
45803;DHT22;31504;51.716;9.184;2023-03-14T17:15:26;19.70;47.10
45803;DHT22;31504;51.716;9.184;2023-03-14T17:18:27;19.70;47.00
45803;DHT22;31504;51.716;9.184;2023-03-14T17:21:27;19.70;47.10
45803;DHT22;31504;51.716;9.184;2023-03-14T17:24:28;19.60;47.50
45803;DHT22;31504;51.716;9.184;2023-03-14T17:27:28;19.70;47.40
45803;DHT22;31504;51.716;9.184;2023-03-14T17:30:28;19.70;47.50
45803;DHT22;31504;51.716;9.184;2023-03-14T17:33:29;19.70;47.20
45803;DHT22;31504;51.716;9.184;2023-03-14T17:36:29;19.60;47.20
45803;DHT22;31504;51.716;9.184;2023-03-14T17:39:31;19.60;47.40
45803;DHT22;31504;51.716;9.184;2023-03-14T17:42:32;19.60;48.10
45803;DHT22;31504;51.716;9.184;2023-03-14T17:45:32;19.50;48.00
45803;DHT22;31504;51.716;9.184;2023-03-14T17:48:33;19.60;48.00
45803;DHT22;31504;51.716;9.184;2023-03-14T17:51:34;19.60;47.90
45803;DHT22;31504;51.716;9.184;2023-03-14T17:54:34;19.60;47.60
45803;DHT22;31504;51.716;9.184;2023-03-14T17:57:35;19.60;47.50
45803;DHT22;31504;51.716;9.184;2023-03-14T18:00:37;19.60;47.70
45803;DHT22;31504;51.716;9.184;2023-03-14T18:03:37;19.60;47.20
45803;DHT22;31504;51.716;9.184;2023-03-14T18:06:38;19.60;47.50
45803;DHT22;31504;51.716;9.184;2023-03-14T18:09:39;19.70;46.30
45803;DHT22;31504;51.716;9.184;2023-03-14T18:12:40;19.70;47.20
45803;DHT22;31504;51.716;9.184;2023-03-14T18:15:40;19.60;46.30
45803;DHT22;31504;51.716;9.184;2023-03-14T18:18:42;19.70;47.00
45803;DHT22;31504;51.716;9.184;2023-03-14T18:21:42;19.80;46.40
45803;DHT22;31504;51.716;9.184;2023-03-14T18:24:43;19.90;46.10
45803;DHT22;31504;51.716;9.184;2023-03-14T18:27:43;19.80;46.50
45803;DHT22;31504;51.716;9.184;2023-03-14T18:30:44;19.70;46.70
45803;DHT22;31504;51.716;9.184;2023-03-14T18:33:51;19.70;46.80
45803;DHT22;31504;51.716;9.184;2023-03-14T18:36:54;19.70;45.90
45803;DHT22;31504;51.716;9.184;2023-03-14T18:39:54;19.80;46.80
45803;DHT22;31504;51.716;9.184;2023-03-14T18:42:55;19.70;46.80
45803;DHT22;31504;51.716;9.184;2023-03-14T18:45:56;19.70;46.80
45803;DHT22;31504;51.716;9.184;2023-03-14T18:48:57;19.70;47.30
45803;DHT22;31504;51.716;9.184;2023-03-14T18:52:02;19.60;46.70
45803;DHT22;31504;51.716;9.184;2023-03-14T18:55:03;19.60;46.40
45803;DHT22;31504;51.716;9.184;2023-03-14T18:58:03;19.60;46.90
45803;DHT22;31504;51.716;9.184;2023-03-14T19:01:04;19.60;46.80
45803;DHT22;31504;51.716;9.184;2023-03-14T19:04:05;19.60;48.00
45803;DHT22;31504;51.716;9.184;2023-03-14T19:07:06;19.60;46.70
45803;DHT22;31504;51.716;9.184;2023-03-14T19:10:06;19.60;47.10
45803;DHT22;31504;51.716;9.184;2023-03-14T19:13:07;19.60;47.10
45803;DHT22;31504;51.716;9.184;2023-03-14T19:16:11;19.60;46.40
45803;DHT22;31504;51.716;9.184;2023-03-14T19:19:12;19.60;45.90
45803;DHT22;31504;51.716;9.184;2023-03-14T19:22:12;19.60;46.60
45803;DHT22;31504;51.716;9.184;2023-03-14T19:25:13;19.70;45.90
45803;DHT22;31504;51.716;9.184;2023-03-14T19:28:13;19.70;46.00
45803;DHT22;31504;51.716;9.184;2023-03-14T19:31:14;19.80;45.80
45803;DHT22;31504;51.716;9.184;2023-03-14T19:34:15;19.60;46.90
45803;DHT22;31504;51.716;9.184;2023-03-14T19:37:15;19.60;47.10
45803;DHT22;31504;51.716;9.184;2023-03-14T19:40:16;19.60;47.60
45803;DHT22;31504;51.716;9.184;2023-03-14T19:43:16;19.50;47.70
45803;DHT22;31504;51.716;9.184;2023-03-14T19:46:17;19.40;48.20
45803;DHT22;31504;51.716;9.184;2023-03-14T19:49:17;19.30;48.30